Time;durP1;ratioP1;P1;durP2;ratioP2;P2;SDS_P1;SDS_P2;PMS_P1;PMS_P2;Temp;Humidity;BMP_temperature;BMP_pressure;BME280_temperature;BME280_humidity;BME280_pressure;Samples;Min_cycle;Max_cycle;Signal;HPM_P1;HPM_P2
2021/04/05 00:01:15;;;;;;;15.00;6.50;;;4.50;99.90;;;;;;5080907;28;20214;-72
2021/04/05 00:03:41;;;;;;;11.43;5.60;;;4.50;99.90;;;;;;5080738;28;20622;-72
2021/04/05 00:06:06;;;;;;;10.90;5.60;;;4.60;99.90;;;;;;5082222;28;20648;-72
2021/04/05 00:08:32;;;;;;;9.67;6.77;;;4.60;99.90;;;;;;5079631;28;20262;-72
2021/04/05 00:10:58;;;;;;;12.03;6.00;;;4.70;99.90;;;;;;5083357;28;20281;-74
2021/04/05 00:13:29;;;;;;;17.93;5.60;;;4.70;99.90;;;;;;5082484;28;20214;-71
2021/04/05 00:15:56;;;;;;;13.77;5.43;;;4.80;99.90;;;;;;5079502;28;20183;-71
2021/04/05 00:18:23;;;;;;;9.20;6.50;;;4.80;99.90;;;;;;5082463;28;20450;-71
2021/04/05 00:21:02;;;;;;;12.57;6.00;;;4.90;99.90;;;;;;5080094;28;20472;-72
2021/04/05 00:23:27;;;;;;;10.67;5.70;;;5.00;99.90;;;;;;5078942;28;20474;-73
2021/04/05 00:25:53;;;;;;;14.40;6.40;;;5.00;99.90;;;;;;5082791;28;20829;-73
2021/04/05 00:28:18;;;;;;;10.33;5.33;;;5.00;99.90;;;;;;5080290;28;20268;-73
2021/04/05 00:30:44;;;;;;;12.00;5.33;;;5.00;99.90;;;;;;5079660;28;20212;-73
2021/04/05 00:33:10;;;;;;;7.40;5.63;;;4.90;99.90;;;;;;5081474;28;20337;-72
2021/04/05 00:35:39;;;;;;;10.50;5.20;;;5.00;99.90;;;;;;5080212;28;20192;-72
2021/04/05 00:38:08;;;;;;;9.00;5.93;;;5.00;99.90;;;;;;5081972;28;20223;-71
2021/04/05 00:40:37;;;;;;;6.03;4.97;;;5.10;99.90;;;;;;5079382;28;20483;-74
2021/04/05 00:43:05;;;;;;;8.17;5.57;;;5.10;99.90;;;;;;5081787;28;20413;-72
2021/04/05 00:45:32;;;;;;;10.93;5.27;;;5.00;99.90;;;;;;5079364;28;20943;-71
2021/04/05 00:47:58;;;;;;;9.10;5.13;;;5.00;99.90;;;;;;5088163;28;20447;-73
2021/04/05 00:50:29;;;;;;;15.57;4.50;;;4.90;99.90;;;;;;5086162;28;20936;-72
2021/04/05 00:52:56;;;;;;;13.37;6.57;;;4.90;99.90;;;;;;5085382;28;20571;-72
2021/04/05 00:55:23;;;;;;;8.83;5.03;;;4.90;99.90;;;;;;5088948;28;20445;-74
2021/04/05 00:57:49;;;;;;;5.97;4.30;;;4.80;99.90;;;;;;5086404;28;20499;-73
2021/04/05 01:00:30;;;;;;;10.30;5.30;;;4.70;99.90;;;;;;5087748;28;20773;-73
2021/04/05 01:02:56;;;;;;;12.07;5.73;;;4.70;99.90;;;;;;5085334;28;20761;-72
2021/04/05 01:05:22;;;;;;;13.30;8.07;;;4.60;99.90;;;;;;5088654;28;20419;-73
2021/04/05 01:07:47;;;;;;;16.03;7.03;;;4.60;99.90;;;;;;5086436;28;20174;-72
2021/04/05 01:10:13;;;;;;;11.40;6.80;;;4.60;99.90;;;;;;5086061;28;20220;-72
2021/04/05 01:12:39;;;;;;;14.87;6.53;;;4.50;99.90;;;;;;5087409;28;20658;-72
2021/04/05 01:15:07;;;;;;;12.70;6.70;;;4.50;99.90;;;;;;5086201;28;20438;-71
2021/04/05 01:17:32;;;;;;;11.27;7.00;;;4.40;99.90;;;;;;5088459;28;20476;-72
2021/04/05 01:19:58;;;;;;;11.07;7.07;;;4.30;99.90;;;;;;5085439;28;20422;-72
2021/04/05 01:22:24;;;;;;;10.97;5.97;;;4.30;99.90;;;;;;5088530;28;20179;-72
2021/04/05 01:24:50;;;;;;;7.77;4.90;;;4.20;99.90;;;;;;5085966;28;20303;-72
2021/04/05 01:27:16;;;;;;;10.30;5.20;;;4.20;99.90;;;;;;5087715;28;20199;-72
2021/04/05 01:29:42;;;;;;;14.90;6.30;;;4.10;99.90;;;;;;5086985;28;20417;-71
2021/04/05 01:32:08;;;;;;;8.40;5.47;;;4.00;99.90;;;;;;5086398;28;20845;-72
2021/04/05 01:34:39;;;;;;;8.83;4.67;;;4.00;99.90;;;;;;5088020;28;20205;-72
2021/04/05 01:37:06;;;;;;;19.03;4.67;;;4.00;99.90;;;;;;5086155;28;20951;-72
2021/04/05 01:39:36;;;;;;;7.20;5.10;;;4.00;99.90;;;;;;5087011;28;20436;-72
2021/04/05 01:42:03;;;;;;;11.80;4.67;;;4.00;99.90;;;;;;5085385;28;20521;-73
2021/04/05 01:44:32;;;;;;;8.60;4.80;;;3.90;99.90;;;;;;5087107;28;21047;-73
2021/04/05 01:46:58;;;;;;;9.13;4.67;;;3.90;99.90;;;;;;5085160;28;20415;-73
2021/04/05 01:49:24;;;;;;;7.20;4.60;;;3.80;99.90;;;;;;5088383;28;20522;-74
2021/04/05 01:51:49;;;;;;;4.67;3.93;;;3.80;99.90;;;;;;5086122;28;20678;-72
2021/04/05 01:54:15;;;;;;;8.20;4.60;;;3.70;99.90;;;;;;5087156;28;20210;-72
2021/04/05 01:56:41;;;;;;;6.37;4.27;;;3.70;99.90;;;;;;5087212;28;20687;-73
2021/04/05 01:59:07;;;;;;;5.70;4.60;;;3.60;99.90;;;;;;5081074;28;20218;-73
2021/04/05 02:01:32;;;;;;;7.00;4.67;;;3.50;99.90;;;;;;5085122;28;20465;-73
2021/04/05 02:04:02;;;;;;;10.40;4.90;;;3.60;99.90;;;;;;5081527;28;20206;-73
2021/04/05 02:06:30;;;;;;;7.13;4.43;;;3.50;99.90;;;;;;5081832;28;20258;-73
2021/04/05 02:08:56;;;;;;;5.87;4.43;;;3.50;99.90;;;;;;5085001;28;20424;-71
2021/04/05 02:11:24;;;;;;;6.80;4.33;;;3.40;99.90;;;;;;5082375;28;20512;-71
2021/04/05 02:13:52;;;;;;;11.80;5.23;;;3.40;99.90;;;;;;5083746;28;20461;-72
2021/04/05 02:16:19;;;;;;;10.43;4.20;;;3.30;99.90;;;;;;5082875;28;20425;-72
2021/04/05 02:18:46;;;;;;;13.77;4.90;;;3.30;99.90;;;;;;5083304;28;20428;-72
2021/04/05 02:21:17;;;;;;;8.80;4.83;;;3.30;99.90;;;;;;5083416;28;20469;-72
2021/04/05 02:23:45;;;;;;;10.00;4.77;;;3.30;99.90;;;;;;5082405;28;20429;-72
2021/04/05 02:26:19;;;;;;;8.60;5.10;;;3.30;99.90;;;;;;5083759;28;20836;-73
2021/04/05 02:28:47;;;;;;;8.13;5.27;;;3.20;99.90;;;;;;5083054;28;20427;-72
2021/04/05 02:31:16;;;;;;;15.77;5.33;;;3.30;99.90;;;;;;5083226;28;20442;-73
2021/04/05 02:33:44;;;;;;;7.57;4.50;;;3.20;99.90;;;;;;5082213;28;20437;-73
2021/04/05 02:36:14;;;;;;;12.43;4.83;;;3.20;99.90;;;;;;5083652;28;20439;-72
2021/04/05 02:38:41;;;;;;;12.03;4.70;;;3.20;99.90;;;;;;5081978;28;20775;-72
2021/04/05 02:41:08;;;;;;;9.57;5.13;;;3.20;99.90;;;;;;5083867;28;20481;-74
2021/04/05 02:43:35;;;;;;;9.70;4.87;;;3.20;99.90;;;;;;5081132;28;20471;-72
2021/04/05 02:46:02;;;;;;;16.30;4.70;;;3.10;99.90;;;;;;5083784;28;20426;-74
2021/04/05 02:48:34;;;;;;;8.77;4.87;;;3.10;99.90;;;;;;5081209;28;20424;-72
2021/04/05 02:51:05;;;;;;;10.23;4.30;;;3.10;99.90;;;;;;5081473;28;20478;-72
2021/04/05 02:53:32;;;;;;;9.17;5.13;;;3.10;99.90;;;;;;5080725;28;20953;-72
2021/04/05 02:56:02;;;;;;;7.30;4.43;;;3.10;99.90;;;;;;5080891;28;20428;-74
2021/04/05 02:58:30;;;;;;;10.07;5.63;;;3.10;99.90;;;;;;5080765;28;20910;-74
2021/04/05 03:00:56;;;;;;;9.30;4.60;;;3.10;99.90;;;;;;5080629;28;20461;-73
2021/04/05 03:03:22;;;;;;;13.10;4.73;;;3.00;99.90;;;;;;5082121;28;20955;-72
2021/04/05 03:05:49;;;;;;;10.13;5.73;;;3.00;99.90;;;;;;5080503;28;20207;-73
2021/04/05 03:08:16;;;;;;;11.53;5.13;;;3.00;99.90;;;;;;5082545;28;20169;-72
2021/04/05 03:10:42;;;;;;;6.23;4.67;;;2.90;99.90;;;;;;5081918;28;20775;-72
2021/04/05 03:13:09;;;;;;;8.87;5.20;;;3.00;99.90;;;;;;5081107;28;20507;-71
2021/04/05 03:15:36;;;;;;;11.60;4.67;;;2.90;99.90;;;;;;5081866;28;20272;-73
2021/04/05 03:18:05;;;;;;;6.47;4.73;;;2.90;99.90;;;;;;5079828;28;20457;-72
2021/04/05 03:20:33;;;;;;;8.57;5.23;;;2.90;99.90;;;;;;5083713;28;20455;-73
2021/04/05 03:23:01;;;;;;;8.23;5.07;;;2.80;99.90;;;;;;5079775;28;20772;-73
2021/04/05 03:25:26;;;;;;;10.33;5.03;;;2.80;99.90;;;;;;5080427;28;20997;-73
2021/04/05 03:27:52;;;;;;;5.63;3.87;;;2.70;99.90;;;;;;5083016;28;20417;-72
2021/04/05 03:30:26;;;;;;;12.10;5.07;;;2.60;99.90;;;;;;5081384;28;20169;-72
2021/04/05 03:32:57;;;;;;;8.10;4.83;;;2.70;99.90;;;;;;5082699;28;20178;-74
2021/04/05 03:35:30;;;;;;;7.20;3.97;;;2.60;99.90;;;;;;5080859;28;20412;-72
2021/04/05 03:37:57;;;;;;;10.10;4.77;;;2.60;99.90;;;;;;5083472;28;20433;-75
2021/04/05 03:40:23;;;;;;;12.27;5.50;;;2.60;99.90;;;;;;5079113;28;20818;-72
2021/04/05 03:43:38;;;;;;;4.57;4.17;;;2.60;99.90;;;;;;5082249;28;20761;-72
2021/04/05 03:46:16;;;;;;;7.33;4.80;;;2.60;99.90;;;;;;5001613;28;20470;-72
2021/04/05 03:48:57;;;;;;;8.17;4.13;;;2.60;99.90;;;;;;4999710;28;20546;-71
2021/04/05 03:51:37;;;;;;;9.83;5.20;;;2.60;99.90;;;;;;5054186;28;20477;-72
2021/04/05 03:54:08;;;;;;;8.30;5.53;;;2.60;99.90;;;;;;5079501;28;21026;-72
2021/04/05 03:56:44;;;;;;;8.37;4.50;;;2.50;99.90;;;;;;5082916;28;20963;-73
2021/04/05 03:59:14;;;;;;;7.10;5.23;;;2.50;99.90;;;;;;5080655;28;20423;-74
2021/04/05 04:01:48;;;;;;;13.27;5.47;;;2.60;99.90;;;;;;5081917;28;20462;-72
2021/04/05 04:04:23;;;;;;;18.60;6.10;;;2.60;99.90;;;;;;5080885;28;20450;-73
2021/04/05 04:06:59;;;;;;;12.47;6.87;;;2.60;99.90;;;;;;5079389;28;20423;-72
2021/04/05 04:09:26;;;;;;;14.57;6.73;;;2.50;99.90;;;;;;5082921;28;20426;-72
2021/04/05 04:11:55;;;;;;;13.70;5.77;;;2.50;99.90;;;;;;5079979;28;20555;-73
2021/04/05 04:14:22;;;;;;;13.93;7.27;;;2.50;99.90;;;;;;5081898;28;20439;-72
2021/04/05 04:16:49;;;;;;;19.60;7.03;;;2.50;99.90;;;;;;5080419;28;21157;-72
2021/04/05 04:19:17;;;;;;;13.57;7.43;;;2.50;99.90;;;;;;5081081;28;20436;-72
2021/04/05 04:21:45;;;;;;;13.47;6.90;;;2.50;99.90;;;;;;5080393;28;20579;-74
2021/04/05 04:24:11;;;;;;;13.03;5.90;;;2.50;99.90;;;;;;5080185;28;20451;-72
2021/04/05 04:26:37;;;;;;;11.00;6.43;;;2.50;99.90;;;;;;5082031;28;20418;-74
2021/04/05 04:29:03;;;;;;;9.67;5.90;;;2.60;99.90;;;;;;5079415;28;20261;-72
2021/04/05 04:31:29;;;;;;;14.60;5.70;;;2.60;99.90;;;;;;5082788;28;20252;-73
2021/04/05 04:33:55;;;;;;;13.20;6.63;;;2.50;99.90;;;;;;5078756;28;20439;-75
2021/04/05 04:36:25;;;;;;;14.63;5.40;;;2.50;99.90;;;;;;5081967;28;20415;-72
2021/04/05 04:38:53;;;;;;;11.30;6.90;;;2.50;99.90;;;;;;5079909;28;20703;-72
2021/04/05 04:41:24;;;;;;;9.17;5.40;;;2.50;99.90;;;;;;5081781;28;20854;-73
2021/04/05 04:43:57;;;;;;;11.50;5.70;;;2.50;99.90;;;;;;5082109;28;20445;-72
2021/04/05 04:46:23;;;;;;;14.10;5.83;;;2.60;99.90;;;;;;5079632;28;20488;-73
2021/04/05 04:49:04;;;;;;;14.17;6.97;;;2.60;99.90;;;;;;5081080;28;20918;-72
2021/04/05 04:51:30;;;;;;;14.67;7.50;;;2.60;99.90;;;;;;5079120;28;20185;-72
2021/04/05 04:53:58;;;;;;;11.40;5.87;;;2.70;99.90;;;;;;5082028;28;20446;-72
2021/04/05 04:56:25;;;;;;;13.20;6.80;;;2.80;99.90;;;;;;5079395;28;20444;-72
2021/04/05 04:58:51;;;;;;;13.63;6.40;;;2.90;99.90;;;;;;5081234;28;20518;-70
2021/04/05 05:01:17;;;;;;;13.90;6.00;;;2.90;99.90;;;;;;5080250;28;20458;-71
2021/04/05 05:03:50;;;;;;;12.60;5.20;;;3.00;99.90;;;;;;5079910;28;20855;-72
2021/04/05 05:06:18;;;;;;;9.30;5.50;;;3.10;99.90;;;;;;5080731;28;20925;-71
2021/04/05 05:08:44;;;;;;;10.53;4.70;;;3.20;99.90;;;;;;5080206;28;20458;-70
2021/04/05 05:11:10;;;;;;;10.03;6.27;;;3.50;99.90;;;;;;5081147;28;20899;-71
2021/04/05 05:13:36;;;;;;;9.50;5.63;;;3.70;99.90;;;;;;5078849;28;20447;-70
2021/04/05 05:16:05;;;;;;;9.23;6.00;;;3.80;99.90;;;;;;5082181;28;20447;-72
2021/04/05 05:18:31;;;;;;;14.63;5.63;;;3.90;99.90;;;;;;5078684;28;20208;-70
2021/04/05 05:20:59;;;;;;;11.50;5.43;;;4.00;99.90;;;;;;5078712;28;20476;-71
2021/04/05 05:23:25;;;;;;;10.47;5.47;;;4.00;99.90;;;;;;5082543;28;20514;-70
2021/04/05 05:25:52;;;;;;;13.17;6.57;;;4.00;99.90;;;;;;5081250;28;21038;-71
2021/04/05 05:28:21;;;;;;;14.07;7.80;;;4.00;99.90;;;;;;5079914;28;20443;-70
2021/04/05 05:30:48;;;;;;;13.67;6.60;;;4.10;99.90;;;;;;5080625;28;20518;-71
2021/04/05 05:33:14;;;;;;;11.10;4.87;;;4.10;99.90;;;;;;5081715;28;20948;-71
2021/04/05 05:35:40;;;;;;;10.83;7.00;;;4.20;99.90;;;;;;5083387;28;20477;-70
2021/04/05 05:38:07;;;;;;;16.17;6.43;;;4.30;99.90;;;;;;5085078;28;20424;-71
2021/04/05 05:40:35;;;;;;;9.00;6.70;;;4.40;99.90;;;;;;5082195;28;20456;-71
2021/04/05 05:43:05;;;;;;;12.20;7.67;;;4.50;99.90;;;;;;5085429;28;20422;-69
2021/04/05 05:45:38;;;;;;;11.37;6.20;;;4.60;99.90;;;;;;5082111;28;20399;-71
2021/04/05 05:48:11;;;;;;;12.20;5.77;;;4.60;99.90;;;;;;5082444;28;20451;-71
2021/04/05 05:50:58;;;;;;;11.47;5.00;;;4.70;99.90;;;;;;5084557;28;20425;-71
2021/04/05 05:53:51;;;;;;;9.77;4.70;;;4.80;99.90;;;;;;5084938;28;20918;-72
2021/04/05 05:56:36;;;;;;;7.97;5.80;;;5.00;99.90;;;;;;5083974;28;20863;-70
2021/04/05 05:59:16;;;;;;;10.53;5.80;;;5.20;99.90;;;;;;5081753;28;20475;-72
2021/04/05 06:02:13;;;;;;;11.17;6.43;;;5.40;99.90;;;;;;5082788;28;20514;-71
2021/04/05 06:05:22;;;;;;;9.60;5.80;;;5.50;99.90;;;;;;5081438;28;20447;-72
2021/04/05 06:08:14;;;;;;;9.60;5.70;;;5.70;99.90;;;;;;5081961;28;20430;-71
2021/04/05 06:10:59;;;;;;;7.97;5.27;;;5.90;99.90;;;;;;5083166;28;20422;-71
2021/04/05 06:13:43;;;;;;;9.37;5.50;;;5.90;99.90;;;;;;5082146;28;20440;-72
2021/04/05 06:16:31;;;;;;;11.77;5.17;;;6.00;99.90;;;;;;5084264;28;20531;-70
2021/04/05 06:18:59;;;;;;;5.80;4.30;;;6.10;99.90;;;;;;5085046;28;20418;-70
2021/04/05 06:21:40;;;;;;;9.73;4.80;;;6.20;99.90;;;;;;5081848;28;20487;-70
2021/04/05 06:24:31;;;;;;;9.40;4.77;;;6.30;99.90;;;;;;5081580;28;20443;-70
2021/04/05 06:27:28;;;;;;;9.20;4.90;;;6.50;99.90;;;;;;5080940;28;20857;-71
2021/04/05 06:30:05;;;;;;;8.60;5.40;;;6.70;99.90;;;;;;5058717;28;20795;-71
2021/04/05 06:33:08;;;;;;;7.70;4.53;;;6.80;99.90;;;;;;5084194;28;20443;-70
2021/04/05 06:35:42;;;;;;;10.10;5.13;;;6.90;99.90;;;;;;5016918;28;20995;-70
2021/04/05 06:38:43;;;;;;;9.27;5.20;;;7.00;99.90;;;;;;5083773;28;20426;-70
2021/04/05 06:41:36;;;;;;;11.40;5.20;;;7.10;99.90;;;;;;5081821;28;20466;-71
2021/04/05 06:44:23;;;;;;;10.60;5.60;;;7.20;99.90;;;;;;5080356;28;20806;-71
2021/04/05 06:47:11;;;;;;;8.43;4.30;;;7.40;99.90;;;;;;5082017;28;20411;-70
2021/04/05 06:50:13;;;;;;;4.70;3.90;;;7.50;99.90;;;;;;5081420;28;20508;-70
2021/04/05 06:52:53;;;;;;;9.80;4.43;;;7.70;99.90;;;;;;5081614;28;20417;-70
2021/04/05 06:55:28;;;;;;;10.33;4.87;;;7.90;99.90;;;;;;5082020;28;20922;-71
2021/04/05 06:58:22;;;;;;;10.80;4.60;;;8.00;99.90;;;;;;5083751;28;20420;-71
2021/04/05 07:01:07;;;;;;;12.20;4.87;;;8.20;99.90;;;;;;5082861;28;20469;-70
2021/04/05 07:04:04;;;;;;;7.37;5.03;;;8.30;99.90;;;;;;5080757;28;20844;-71
2021/04/05 07:07:04;;;;;;;9.00;4.80;;;8.50;99.90;;;;;;5084860;28;20418;-71
2021/04/05 07:09:38;;;;;;;7.93;3.93;;;8.60;99.90;;;;;;5084045;28;20542;-71
2021/04/05 07:12:33;;;;;;;10.17;4.93;;;8.80;99.90;;;;;;5081186;28;20420;-71
2021/04/05 07:15:36;;;;;;;6.10;4.60;;;8.90;99.90;;;;;;5080354;28;20428;-70
2021/04/05 07:18:13;;;;;;;17.63;5.63;;;9.10;99.90;;;;;;5080386;28;20450;-71
2021/04/05 07:20:58;;;;;;;11.07;4.53;;;9.20;99.90;;;;;;5082534;28;20496;-71
2021/04/05 07:23:47;;;;;;;8.43;4.80;;;9.30;99.90;;;;;;5082566;28;20455;-71
2021/04/05 07:26:36;;;;;;;10.00;4.60;;;9.50;99.90;;;;;;5081863;28;20443;-72
2021/04/05 07:29:07;;;;;;;6.90;4.50;;;9.70;99.90;;;;;;5079955;28;20421;-71
2021/04/05 07:31:38;;;;;;;10.90;5.57;;;9.90;99.90;;;;;;5080221;28;20417;-70
2021/04/05 07:34:32;;;;;;;8.67;4.50;;;10.30;99.90;;;;;;5081633;28;20440;-70
2021/04/05 07:37:32;;;;;;;6.57;4.23;;;10.80;99.90;;;;;;5080147;28;20424;-70
2021/04/05 07:40:12;;;;;;;8.30;4.77;;;11.00;99.90;;;;;;5076041;28;20483;-71
2021/04/05 07:42:49;;;;;;;10.87;5.20;;;11.30;99.90;;;;;;5080475;28;20433;-70
2021/04/05 07:45:27;;;;;;;5.00;4.13;;;11.70;99.90;;;;;;5081329;28;20433;-71
2021/04/05 07:48:10;;;;;;;8.70;4.80;;;12.30;99.90;;;;;;5082646;28;20422;-72
2021/04/05 07:50:45;;;;;;;10.87;4.47;;;12.70;99.90;;;;;;5080105;28;20514;-71
2021/04/05 07:53:20;;;;;;;9.10;4.33;;;13.20;99.90;;;;;;5081732;28;20468;-71
2021/04/05 07:55:47;;;;;;;8.90;5.40;;;13.70;99.90;;;;;;5080882;28;20781;-71
2021/04/05 07:58:31;;;;;;;7.53;4.60;;;14.20;99.90;;;;;;5081167;28;20426;-71
2021/04/05 08:01:08;;;;;;;9.70;4.53;;;14.30;99.90;;;;;;5082806;28;20820;-71
2021/04/05 08:03:46;;;;;;;8.20;5.47;;;14.40;99.90;;;;;;5079315;28;20473;-70
2021/04/05 08:06:14;;;;;;;7.37;4.40;;;14.20;99.90;;;;;;5081589;28;20416;-72
2021/04/05 08:09:00;;;;;;;8.03;4.30;;;14.60;99.90;;;;;;5080417;28;20449;-70
2021/04/05 08:11:50;;;;;;;12.73;5.07;;;14.90;99.90;;;;;;5079571;28;20453;-71
2021/04/05 08:14:30;;;;;;;9.30;5.10;;;14.80;99.90;;;;;;5080888;28;20521;-71
2021/04/05 08:17:05;;;;;;;14.43;4.73;;;14.90;99.90;;;;;;5079602;28;20422;-71
2021/04/05 08:19:56;;;;;;;7.83;3.80;;;15.10;99.90;;;;;;5079174;28;20418;-71
2021/04/05 08:22:42;;;;;;;6.77;4.60;;;14.90;99.90;;;;;;5081855;28;20469;-71
2021/04/05 08:25:33;;;;;;;7.60;4.60;;;14.90;99.90;;;;;;5080014;28;20445;-71
2021/04/05 08:28:10;;;;;;;7.43;3.90;;;15.20;99.90;;;;;;5079373;28;20433;-71
2021/04/05 08:31:07;;;;;;;9.27;4.50;;;15.00;99.90;;;;;;5079609;28;20411;-71
2021/04/05 08:33:54;;;;;;;12.37;4.57;;;14.80;99.90;;;;;;5078967;28;20471;-70
2021/04/05 08:36:46;;;;;;;12.80;5.60;;;14.90;99.90;;;;;;5080370;28;20950;-70
2021/04/05 08:39:30;;;;;;;5.20;3.63;;;15.20;99.90;;;;;;5080284;28;20469;-71
2021/04/05 08:42:32;;;;;;;11.73;4.00;;;14.90;96.90;;;;;;5077767;28;20571;-70
2021/04/05 08:45:20;;;;;;;11.60;3.37;;;14.80;96.80;;;;;;5050406;28;20438;-70
2021/04/05 08:48:03;;;;;;;10.80;3.27;;;14.60;96.90;;;;;;5080811;28;20421;-71
2021/04/05 08:50:33;;;;;;;6.60;3.10;;;14.30;97.20;;;;;;5082930;28;20416;-71
2021/04/05 08:53:00;;;;;;;9.70;3.53;;;14.10;96.60;;;;;;5078647;28;20410;-71
2021/04/05 08:55:29;;;;;;;6.53;3.17;;;13.90;97.00;;;;;;5082269;28;20412;-70
2021/04/05 08:58:26;;;;;;;8.00;4.00;;;13.90;97.40;;;;;;5079050;28;20422;-71
2021/04/05 09:00:57;;;;;;;7.50;3.77;;;13.90;97.10;;;;;;5081452;28;20466;-71
2021/04/05 09:03:26;;;;;;;6.33;4.30;;;13.80;97.00;;;;;;5079252;28;20500;-71
2021/04/05 09:05:52;;;;;;;11.47;4.13;;;13.40;97.10;;;;;;5081475;28;20954;-71
2021/04/05 09:08:24;;;;;;;17.03;5.53;;;13.30;97.80;;;;;;5081858;28;20422;-71
2021/04/05 09:11:05;;;;;;;10.20;4.30;;;13.00;98.00;;;;;;5085006;28;20811;-70
2021/04/05 09:13:39;;;;;;;13.13;4.40;;;13.00;98.50;;;;;;5082613;28;20800;-71
2021/04/05 09:16:19;;;;;;;8.10;3.90;;;13.00;99.10;;;;;;5083237;28;20415;-71
2021/04/05 09:19:27;;;;;;;7.53;4.40;;;13.00;98.70;;;;;;5084199;28;20472;-70
2021/04/05 09:22:11;;;;;;;11.17;4.60;;;13.00;98.70;;;;;;5085455;28;20492;-71
2021/04/05 09:25:07;;;;;;;7.93;3.93;;;13.10;98.60;;;;;;5082779;28;20450;-72
2021/04/05 09:27:54;;;;;;;8.70;4.40;;;13.10;98.60;;;;;;5082488;28;20546;-71
2021/04/05 09:30:29;;;;;;;6.33;4.40;;;12.90;97.10;;;;;;5085008;28;20948;-71
2021/04/05 09:33:27;;;;;;;8.60;5.30;;;13.00;97.10;;;;;;5082442;28;20499;-69
2021/04/05 09:35:58;;;;;;;8.83;3.93;;;13.00;96.70;;;;;;5041884;28;20793;-71
2021/04/05 09:38:37;;;;;;;6.67;4.67;;;13.20;97.40;;;;;;5085297;28;20513;-71
2021/04/05 09:41:14;;;;;;;11.93;6.83;;;13.40;96.50;;;;;;5082206;28;20451;-71
2021/04/05 09:44:09;;;;;;;8.80;4.00;;;13.40;96.40;;;;;;5084179;28;20441;-71
2021/04/05 09:46:57;;;;;;;18.10;4.20;;;13.50;96.20;;;;;;5082609;28;20854;-71
2021/04/05 09:49:54;;;;;;;7.57;3.60;;;13.60;96.20;;;;;;5082549;28;20501;-71
2021/04/05 09:52:38;;;;;;;5.93;3.30;;;13.60;95.10;;;;;;5084920;28;20485;-71
2021/04/05 09:55:14;;;;;;;5.90;3.27;;;13.30;94.60;;;;;;5081991;28;20462;-70
2021/04/05 09:57:49;;;;;;;5.30;2.80;;;13.30;94.80;;;;;;5084383;28;21088;-70
2021/04/05 10:00:19;;;;;;;7.60;3.63;;;13.50;95.00;;;;;;5083518;28;20418;-71
2021/04/05 10:02:52;;;;;;;6.50;3.47;;;13.70;94.70;;;;;;5083412;28;20454;-71
2021/04/05 10:05:20;;;;;;;6.57;2.93;;;13.70;93.90;;;;;;5083815;28;20438;-71
2021/04/05 10:07:47;;;;;;;3.77;3.17;;;13.70;94.00;;;;;;5083362;28;20434;-70
2021/04/05 10:10:15;;;;;;;9.30;4.37;;;13.60;92.70;;;;;;5083071;28;20426;-71
2021/04/05 10:12:44;;;;;;;5.73;4.60;;;13.60;92.10;;;;;;5083631;28;20425;-71
2021/04/05 10:15:16;;;;;;;11.63;5.37;;;13.60;92.10;;;;;;5082463;28;20443;-71
2021/04/05 10:17:48;;;;;;;8.90;3.80;;;13.50;92.00;;;;;;5083685;28;20426;-71
2021/04/05 10:20:14;;;;;;;6.23;3.40;;;13.30;91.50;;;;;;5081941;28;20431;-72
2021/04/05 10:22:45;;;;;;;8.43;3.50;;;13.20;91.60;;;;;;5083584;28;20548;-71
2021/04/05 10:25:13;;;;;;;10.30;3.77;;;13.10;91.20;;;;;;5082628;28;20518;-70
2021/04/05 10:27:40;;;;;;;10.50;3.40;;;13.20;91.90;;;;;;5083935;28;20453;-70
2021/04/05 10:30:33;;;;;;;5.33;2.77;;;13.30;92.20;;;;;;5081933;28;20423;-71
2021/04/05 10:33:05;;;;;;;3.77;2.67;;;13.40;91.00;;;;;;5081094;28;20498;-71
2021/04/05 10:35:35;;;;;;;7.63;2.87;;;13.40;90.40;;;;;;5081186;28;20419;-71
2021/04/05 10:38:04;;;;;;;7.17;2.97;;;13.40;89.60;;;;;;5081494;28;20775;-70
2021/04/05 10:40:30;;;;;;;4.83;2.60;;;13.40;90.10;;;;;;5081091;28;20477;-70
2021/04/05 10:43:04;;;;;;;6.10;3.50;;;13.40;90.10;;;;;;5082997;28;20414;-68
2021/04/05 10:45:33;;;;;;;7.43;3.33;;;13.50;90.60;;;;;;5083787;28;20491;-70
2021/04/05 10:48:12;;;;;;;7.73;3.00;;;13.60;90.50;;;;;;5081142;28;20430;-70
2021/04/05 10:50:45;;;;;;;4.20;2.43;;;13.70;90.20;;;;;;5081574;28;20427;-70
2021/04/05 10:53:16;;;;;;;8.00;3.50;;;13.60;90.30;;;;;;5083101;28;20429;-70
2021/04/05 10:55:50;;;;;;;5.50;3.37;;;14.00;91.10;;;;;;5080850;28;20431;-70
2021/04/05 10:58:20;;;;;;;12.90;2.90;;;14.10;89.80;;;;;;5082693;28;20483;-70
2021/04/05 11:00:49;;;;;;;3.80;2.33;;;14.30;90.10;;;;;;5082488;28;20463;-71
2021/04/05 11:03:19;;;;;;;8.27;3.70;;;14.10;90.00;;;;;;5082294;28;20445;-70
2021/04/05 11:05:49;;;;;;;9.23;3.10;;;14.00;90.30;;;;;;5082438;28;20844;-71
2021/04/05 11:08:20;;;;;;;7.40;3.43;;;13.90;90.70;;;;;;5082311;28;20410;-71
2021/04/05 11:10:46;;;;;;;9.63;3.70;;;14.00;91.60;;;;;;5081113;28;20466;-70
2021/04/05 11:13:14;;;;;;;4.23;3.10;;;13.90;91.80;;;;;;5082575;28;20425;-71
2021/04/05 11:15:41;;;;;;;14.90;3.37;;;13.70;91.70;;;;;;5081412;28;20766;-70
2021/04/05 11:18:13;;;;;;;9.50;4.20;;;13.80;92.20;;;;;;5083401;28;20966;-70
2021/04/05 11:20:44;;;;;;;6.00;4.00;;;13.60;92.40;;;;;;5081059;28;20454;-70
2021/04/05 11:23:16;;;;;;;4.97;4.20;;;13.60;93.20;;;;;;5082402;28;20421;-71
2021/04/05 11:26:09;;;;;;;8.67;4.87;;;13.70;93.50;;;;;;5081408;28;20427;-71
2021/04/05 11:28:37;;;;;;;6.27;4.50;;;13.50;93.80;;;;;;5077255;28;20423;-70
2021/04/05 11:31:06;;;;;;;8.87;5.20;;;13.50;94.50;;;;;;5083502;28;20418;-71
2021/04/05 11:33:53;;;;;;;11.87;5.27;;;13.50;95.10;;;;;;5079989;28;20443;-70
2021/04/05 11:36:20;;;;;;;12.37;6.17;;;13.60;95.70;;;;;;5082366;28;20419;-71
2021/04/05 11:38:48;;;;;;;12.13;6.70;;;13.60;95.80;;;;;;5081602;28;20426;-70
2021/04/05 11:41:17;;;;;;;14.33;6.90;;;13.40;95.80;;;;;;5081574;28;20481;-71
2021/04/05 11:43:48;;;;;;;7.50;5.63;;;13.30;96.20;;;;;;5081597;28;20438;-70
2021/04/05 11:46:15;;;;;;;9.33;5.33;;;13.30;96.90;;;;;;5081521;28;20422;-71
2021/04/05 11:48:43;;;;;;;13.27;7.13;;;13.30;97.20;;;;;;5081986;28;20943;-71
2021/04/05 11:51:09;;;;;;;15.80;6.33;;;13.40;97.40;;;;;;5079849;28;20422;-72
2021/04/05 11:53:54;;;;;;;13.40;6.30;;;13.40;96.70;;;;;;5079677;28;21228;-71
2021/04/05 11:56:26;;;;;;;13.40;6.53;;;13.20;97.30;;;;;;5080840;28;20417;-70
2021/04/05 11:59:18;;;;;;;15.97;6.17;;;13.10;97.00;;;;;;5082182;28;21031;-72
2021/04/05 12:02:04;;;;;;;13.83;6.37;;;13.10;97.30;;;;;;5080932;28;20466;-71
2021/04/05 12:05:00;;;;;;;10.83;6.40;;;13.00;97.20;;;;;;5079480;28;20521;-71
2021/04/05 12:07:27;;;;;;;19.67;7.73;;;12.80;97.30;;;;;;5068600;28;20455;-71
2021/04/05 12:10:18;;;;;;;14.60;7.40;;;12.60;97.70;;;;;;5082046;28;20447;-71
2021/04/05 12:12:52;;;;;;;14.23;7.90;;;12.50;98.80;;;;;;5080797;28;20442;-70
2021/04/05 12:15:20;;;;;;;16.03;8.07;;;12.50;99.30;;;;;;5081052;28;21048;-71
2021/04/05 12:17:49;;;;;;;19.53;8.90;;;12.40;99.90;;;;;;5081156;28;20423;-71
2021/04/05 12:20:16;;;;;;;16.10;9.27;;;12.30;99.90;;;;;;5081469;28;20421;-70
2021/04/05 12:22:43;;;;;;;28.73;11.97;;;12.10;99.90;;;;;;5080046;28;20470;-70
2021/04/05 12:25:09;;;;;;;21.10;10.30;;;12.00;99.90;;;;;;5081721;28;20519;-70
2021/04/05 12:27:37;;;;;;;27.27;11.50;;;12.00;99.90;;;;;;5079560;28;20557;-70
2021/04/05 12:30:25;;;;;;;20.83;9.67;;;11.90;99.90;;;;;;5082510;28;20777;-71
2021/04/05 12:32:53;;;;;;;21.90;10.20;;;11.80;99.90;;;;;;5081139;28;20441;-70
2021/04/05 12:35:22;;;;;;;23.13;10.33;;;11.70;99.90;;;;;;5080121;28;20514;-70
2021/04/05 12:37:57;;;;;;;16.37;9.80;;;11.60;99.90;;;;;;5081020;28;20422;-71
2021/04/05 12:40:36;;;;;;;17.00;10.37;;;11.50;99.90;;;;;;5079497;28;20426;-71
2021/04/05 12:43:14;;;;;;;25.23;10.20;;;11.50;99.90;;;;;;5081103;28;20432;-71
2021/04/05 12:45:52;;;;;;;15.43;8.90;;;11.50;99.90;;;;;;5079679;28;20422;-70
2021/04/05 12:48:24;;;;;;;21.80;9.83;;;11.50;99.90;;;;;;5080537;28;20418;-71
2021/04/05 12:50:55;;;;;;;26.33;12.23;;;11.40;99.90;;;;;;5081006;28;21028;-71
2021/04/05 12:53:24;;;;;;;24.27;10.70;;;11.40;99.90;;;;;;5079822;28;20534;-70
2021/04/05 12:55:52;;;;;;;22.03;10.57;;;11.30;99.90;;;;;;5080988;28;20467;-71
2021/04/05 12:58:17;;;;;;;21.60;11.60;;;11.30;99.90;;;;;;5080437;28;20433;-70
2021/04/05 13:00:43;;;;;;;22.47;11.67;;;11.30;99.90;;;;;;5079944;28;20464;-70
2021/04/05 13:03:22;;;;;;;23.50;11.70;;;11.30;99.90;;;;;;5081080;28;20173;-71
2021/04/05 13:05:56;;;;;;;27.47;11.83;;;11.30;99.90;;;;;;5078732;28;20420;-71
2021/04/05 13:08:23;;;;;;;18.57;10.23;;;11.30;99.90;;;;;;5081686;28;20500;-71
2021/04/05 13:10:56;;;;;;;23.90;11.90;;;11.30;99.90;;;;;;5079783;28;21120;-70
2021/04/05 13:13:25;;;;;;;22.83;10.97;;;11.20;99.90;;;;;;5081107;28;20460;-70
2021/04/05 13:16:13;;;;;;;14.67;9.73;;;11.30;99.90;;;;;;5079547;28;20424;-71
2021/04/05 13:18:52;;;;;;;19.70;10.47;;;11.40;99.90;;;;;;5079189;28;20424;-70
2021/04/05 13:21:19;;;;;;;23.10;9.93;;;11.50;99.90;;;;;;5080068;28;20990;-70